createdAt,value
2019-02-23T00:00:06.982Z,38.60
2019-02-23T00:02:35.385Z,39.70
2019-02-23T00:05:03.849Z,37.87
2019-02-23T00:07:32.249Z,38.07
2019-02-23T00:10:00.653Z,36.47
2019-02-23T00:12:29.043Z,35.57
2019-02-23T00:14:57.430Z,33.07
2019-02-23T00:17:25.825Z,31.03
2019-02-23T00:19:54.222Z,30.40
2019-02-23T00:22:22.623Z,33.63
2019-02-23T00:24:51.023Z,35.93
2019-02-23T00:27:19.410Z,32.93
2019-02-23T00:29:47.799Z,32.87
2019-02-23T00:32:16.193Z,33.93
2019-02-23T00:34:44.592Z,34.77
2019-02-23T00:37:12.981Z,33.27
2019-02-23T00:39:41.379Z,34.73
2019-02-23T00:42:09.770Z,34.67
2019-02-23T00:44:38.169Z,35.57
2019-02-23T00:47:06.562Z,35.53
2019-02-23T00:49:36.622Z,32.90
2019-02-23T00:52:05.384Z,32.07
2019-02-23T00:54:33.772Z,35.67
2019-02-23T00:57:02.176Z,36.27
2019-02-23T00:59:30.565Z,34.33
2019-02-23T01:01:58.965Z,34.17
2019-02-23T01:04:27.369Z,34.60
2019-02-23T01:06:55.756Z,35.93
2019-02-23T01:09:24.196Z,34.53
2019-02-23T01:11:52.588Z,35.40
2019-02-23T01:14:20.977Z,34.83
2019-02-23T01:16:49.373Z,33.60
2019-02-23T01:19:17.763Z,31.17
2019-02-23T01:21:46.168Z,32.93
2019-02-23T01:24:14.557Z,32.93
2019-02-23T01:26:42.953Z,32.63
2019-02-23T01:29:11.343Z,32.17
2019-02-23T01:31:39.754Z,31.90
2019-02-23T01:34:08.127Z,31.93
2019-02-23T01:36:36.532Z,31.23
2019-02-23T01:39:07.549Z,31.30
2019-02-23T01:41:35.953Z,30.43
2019-02-23T01:44:04.348Z,31.37
2019-02-23T01:46:32.756Z,33.77
2019-02-23T01:49:01.144Z,36.50
2019-02-23T01:51:29.614Z,39.87
2019-02-23T01:53:58.005Z,40.97
2019-02-23T01:56:26.659Z,41.00
2019-02-23T01:58:55.056Z,38.50
2019-02-23T02:01:23.513Z,36.37
2019-02-23T02:03:51.907Z,31.77
2019-02-23T02:06:20.296Z,26.83
2019-02-23T02:08:48.762Z,27.00
2019-02-23T02:11:17.147Z,25.20
2019-02-23T02:13:45.533Z,23.20
2019-02-23T02:16:14.009Z,23.53
2019-02-23T02:18:42.410Z,22.90
2019-02-23T02:21:10.794Z,21.97
2019-02-23T02:23:39.197Z,20.57
2019-02-23T02:26:07.589Z,22.00
2019-02-23T02:28:36.010Z,19.80
2019-02-23T02:31:04.400Z,21.00
2019-02-23T02:33:32.782Z,19.93
2019-02-23T02:36:01.184Z,18.47
2019-02-23T02:38:29.563Z,20.13
2019-02-23T02:40:57.960Z,20.00
2019-02-23T02:43:26.350Z,19.77
2019-02-23T02:45:55.000Z,19.20
2019-02-23T02:48:23.404Z,18.57
2019-02-23T02:50:51.788Z,20.00
2019-02-23T02:53:20.432Z,20.70
2019-02-23T02:55:48.828Z,19.00
2019-02-23T02:58:17.212Z,20.57
2019-02-23T03:00:45.611Z,20.60
2019-02-23T03:03:14.004Z,21.47
2019-02-23T03:05:42.389Z,20.23
2019-02-23T03:08:10.788Z,20.50
2019-02-23T03:10:39.190Z,21.07
2019-02-23T03:13:07.589Z,21.20
2019-02-23T03:15:35.987Z,20.83
2019-02-23T03:18:04.617Z,20.63
2019-02-23T03:20:36.647Z,20.13
2019-02-23T03:23:03.138Z,19.03
2019-02-23T03:25:31.535Z,20.87
2019-02-23T03:27:59.921Z,18.93
2019-02-23T03:30:28.321Z,18.17
2019-02-23T03:32:56.714Z,18.87
2019-02-23T03:35:25.122Z,18.97
2019-02-23T03:37:53.523Z,20.10
2019-02-23T03:40:21.917Z,19.10
2019-02-23T03:42:50.322Z,19.13
2019-02-23T03:45:18.729Z,20.30
2019-02-23T03:47:47.385Z,21.37
2019-02-23T03:50:15.780Z,22.07
2019-02-23T03:52:44.188Z,21.17
2019-02-23T03:55:12.657Z,22.80
2019-02-23T03:57:41.044Z,21.93
2019-02-23T04:00:10.978Z,23.07
2019-02-23T04:02:39.416Z,23.40
2019-02-23T04:05:07.849Z,23.17
2019-02-23T04:07:36.237Z,24.07
2019-02-23T04:10:07.776Z,24.43
2019-02-23T04:12:36.161Z,25.83
2019-02-23T04:15:06.991Z,27.47
2019-02-23T04:17:35.372Z,27.30
2019-02-23T04:20:05.230Z,28.20
2019-02-23T04:22:33.637Z,28.53
2019-02-23T04:25:02.031Z,28.47
2019-02-23T04:27:30.428Z,28.07
2019-02-23T04:29:58.822Z,27.17
2019-02-23T04:32:27.221Z,29.73
2019-02-23T04:34:55.617Z,29.00
2019-02-23T04:37:24.025Z,28.87
2019-02-23T04:39:52.416Z,29.30
2019-02-23T04:42:20.830Z,29.60
2019-02-23T04:44:49.240Z,29.20
2019-02-23T04:47:17.631Z,28.27
2019-02-23T04:49:54.024Z,29.43
2019-02-23T04:52:22.436Z,27.53
2019-02-23T04:54:50.876Z,28.80
2019-02-23T04:57:19.287Z,28.03
2019-02-23T04:59:47.660Z,28.97
2019-02-23T05:02:16.300Z,28.70
2019-02-23T05:04:44.692Z,28.20
2019-02-23T05:07:13.097Z,28.43
2019-02-23T05:09:41.732Z,28.30
2019-02-23T05:12:10.198Z,28.70
2019-02-23T05:14:38.594Z,28.30
2019-02-23T05:17:06.980Z,28.70
2019-02-23T05:19:35.382Z,30.70
2019-02-23T05:22:03.764Z,39.37
2019-02-23T05:24:32.154Z,30.87
2019-02-23T05:27:00.549Z,32.57
2019-02-23T05:29:28.962Z,32.30
2019-02-23T05:31:57.345Z,33.13
2019-02-23T05:34:25.728Z,31.30
2019-02-23T05:36:54.146Z,34.30
2019-02-23T05:39:22.532Z,33.33
2019-02-23T05:41:50.923Z,32.13
2019-02-23T05:44:19.393Z,31.17
2019-02-23T05:46:47.797Z,29.60
2019-02-23T05:49:16.193Z,32.53
2019-02-23T05:51:44.587Z,30.73
2019-02-23T05:54:12.982Z,34.10
2019-02-23T05:56:41.373Z,33.60
2019-02-23T05:59:09.770Z,35.70
2019-02-23T06:01:38.160Z,28.77
2019-02-23T06:04:06.569Z,28.90
2019-02-23T06:06:35.067Z,29.17
2019-02-23T06:09:04.565Z,31.27
2019-02-23T06:11:32.965Z,31.23
2019-02-23T06:14:01.356Z,31.13
2019-02-23T06:16:29.769Z,29.40
2019-02-23T06:18:58.161Z,27.30
2019-02-23T06:21:26.549Z,27.63
2019-02-23T06:23:54.949Z,28.50
2019-02-23T06:26:23.369Z,26.40
2019-02-23T06:28:51.773Z,27.67
2019-02-23T06:31:20.184Z,26.93
2019-02-23T06:33:48.603Z,27.93
2019-02-23T06:36:17.015Z,29.07
2019-02-23T06:38:45.411Z,30.33
2019-02-23T06:41:13.817Z,27.60
2019-02-23T06:43:42.217Z,28.03
2019-02-23T06:46:10.606Z,24.53
2019-02-23T06:48:39.009Z,25.83
2019-02-23T06:51:07.421Z,27.37
2019-02-23T06:53:35.813Z,28.27
2019-02-23T06:56:04.201Z,26.47
2019-02-23T06:58:32.601Z,27.33
2019-02-23T07:01:00.999Z,25.37
2019-02-23T07:03:29.389Z,25.17
2019-02-23T07:05:57.798Z,24.97
2019-02-23T07:08:26.189Z,24.80
2019-02-23T07:10:54.596Z,24.97
2019-02-23T07:13:22.997Z,24.43
2019-02-23T07:15:51.390Z,24.63
2019-02-23T07:18:20.080Z,22.93
2019-02-23T07:20:49.340Z,24.23
2019-02-23T07:23:17.745Z,23.30
2019-02-23T07:25:46.140Z,24.33
2019-02-23T07:28:14.532Z,23.00
2019-02-23T07:30:42.930Z,21.67
2019-02-23T07:33:11.361Z,21.80
2019-02-23T07:35:39.758Z,22.03
2019-02-23T07:38:08.208Z,22.40
2019-02-23T07:40:36.612Z,22.60
2019-02-23T07:43:05.000Z,21.27
2019-02-23T07:45:33.385Z,22.03
2019-02-23T07:48:01.781Z,20.57
2019-02-23T07:50:30.181Z,19.80
2019-02-23T07:52:58.626Z,19.93
2019-02-23T07:55:27.041Z,21.47
2019-02-23T07:57:55.452Z,20.40
2019-02-23T08:00:23.862Z,18.47
2019-02-23T08:02:52.248Z,20.23
2019-02-23T08:05:20.645Z,21.57
2019-02-23T08:07:49.133Z,20.17
2019-02-23T08:10:17.522Z,19.80
2019-02-23T08:12:47.579Z,20.13
2019-02-23T08:15:16.095Z,19.57
2019-02-23T08:17:44.555Z,18.77
2019-02-23T08:20:14.349Z,19.50
2019-02-23T08:22:42.769Z,19.13
2019-02-23T08:25:14.086Z,17.27
2019-02-23T08:27:42.534Z,18.30
2019-02-23T08:30:17.607Z,20.37
2019-02-23T08:32:45.997Z,19.43
2019-02-23T08:35:14.493Z,17.90
2019-02-23T08:37:43.000Z,16.70
2019-02-23T08:40:18.545Z,17.70
2019-02-23T08:42:47.138Z,18.17
2019-02-23T08:45:16.124Z,18.57
2019-02-23T08:47:45.040Z,17.97
2019-02-23T08:50:15.070Z,17.20
2019-02-23T08:52:49.288Z,16.17
2019-02-23T08:55:13.644Z,17.23
2019-02-23T08:57:42.041Z,18.20
2019-02-23T09:00:16.637Z,17.80
2019-02-23T09:02:45.121Z,16.13
2019-02-23T09:05:14.613Z,15.80
2019-02-23T09:07:43.017Z,16.00
2019-02-23T09:10:14.141Z,18.13
2019-02-23T09:12:42.529Z,16.90
2019-02-23T09:15:12.375Z,16.93
2019-02-23T09:17:40.794Z,16.07
2019-02-23T09:20:11.317Z,15.57
2019-02-23T09:22:39.778Z,19.03
2019-02-23T09:25:10.714Z,15.83
2019-02-23T09:27:39.141Z,16.20
2019-02-23T09:30:27.065Z,16.10
2019-02-23T09:32:55.581Z,15.33
2019-02-23T09:35:23.991Z,15.13
2019-02-23T09:37:52.401Z,15.80
2019-02-23T09:40:21.657Z,14.63
2019-02-23T09:42:50.053Z,15.70
2019-02-23T09:45:18.445Z,16.53
2019-02-23T09:47:46.854Z,15.23
2019-02-23T09:50:15.237Z,16.87
2019-02-23T09:52:43.663Z,13.17
2019-02-23T09:55:12.637Z,13.13
2019-02-23T09:57:41.047Z,12.10
2019-02-23T10:00:12.213Z,14.30
2019-02-23T10:02:40.682Z,12.43
2019-02-23T10:05:10.344Z,12.90
2019-02-23T10:07:38.772Z,12.10
2019-02-23T10:10:10.593Z,11.97
2019-02-23T10:12:39.002Z,11.80
2019-02-23T10:15:10.583Z,10.90
2019-02-23T10:17:39.057Z,10.83
2019-02-23T10:20:12.682Z,11.90
2019-02-23T10:22:41.179Z,12.33
2019-02-23T10:25:09.657Z,10.57
2019-02-23T10:27:38.069Z,12.67
2019-02-23T10:30:12.549Z,12.07
2019-02-23T10:32:41.005Z,11.30
2019-02-23T10:35:11.731Z,12.90
2019-02-23T10:37:40.138Z,13.00
2019-02-23T10:40:11.842Z,11.00
2019-02-23T10:42:40.413Z,12.73
2019-02-23T10:45:11.870Z,12.23
2019-02-23T10:47:40.256Z,11.73
2019-02-23T10:50:11.785Z,12.00
2019-02-23T10:52:40.194Z,12.77
2019-02-23T10:55:11.321Z,14.00
2019-02-23T10:57:39.724Z,12.10
2019-02-23T11:00:12.841Z,12.53
2019-02-23T11:02:41.241Z,11.93
2019-02-23T11:05:11.352Z,12.20
2019-02-23T11:07:39.836Z,12.03
2019-02-23T11:10:10.581Z,12.67
2019-02-23T11:12:39.083Z,12.87
2019-02-23T11:15:11.119Z,12.80
2019-02-23T11:17:39.652Z,12.47
2019-02-23T11:20:10.097Z,12.60
2019-02-23T11:22:38.637Z,12.63
2019-02-23T11:25:10.246Z,13.00
2019-02-23T11:27:38.663Z,13.17
2019-02-23T11:30:15.785Z,12.07
2019-02-23T11:32:44.198Z,12.73
2019-02-23T11:35:17.618Z,11.93
2019-02-23T11:37:46.294Z,12.83
2019-02-23T11:40:16.737Z,12.23
2019-02-23T11:42:45.251Z,12.70
2019-02-23T11:45:13.805Z,12.13
2019-02-23T11:47:42.349Z,12.07
2019-02-23T11:50:13.346Z,12.93
2019-02-23T11:52:41.741Z,13.23
2019-02-23T11:55:10.224Z,12.67
2019-02-23T11:57:46.153Z,12.50
2019-02-23T12:00:15.633Z,12.97
2019-02-23T12:02:52.078Z,12.73
2019-02-23T12:05:14.185Z,12.43
2019-02-23T12:07:42.589Z,12.30
2019-02-23T12:10:31.836Z,11.60
2019-02-23T12:13:00.254Z,13.30
2019-02-23T12:15:28.638Z,12.03
2019-02-23T12:17:57.040Z,11.77
2019-02-23T12:20:25.461Z,12.40
2019-02-23T12:22:53.865Z,12.07
2019-02-23T12:25:23.332Z,13.40
2019-02-23T12:27:51.732Z,11.60
2019-02-23T12:30:20.142Z,16.40
2019-02-23T12:32:48.541Z,20.00
2019-02-23T12:35:16.948Z,22.60
2019-02-23T12:37:45.360Z,12.83
2019-02-23T12:40:13.830Z,14.03
2019-02-23T12:42:42.226Z,17.07
2019-02-23T12:45:13.375Z,12.87
2019-02-23T12:47:41.783Z,13.00
2019-02-23T12:50:12.797Z,14.53
2019-02-23T12:52:41.206Z,11.97
2019-02-23T12:55:11.831Z,12.73
2019-02-23T12:57:41.137Z,13.13
2019-02-23T13:00:15.058Z,13.00
2019-02-23T13:02:43.474Z,13.30
2019-02-23T13:05:11.942Z,12.90
2019-02-23T13:07:40.419Z,11.87
2019-02-23T13:10:13.679Z,13.07
2019-02-23T13:13:13.708Z,11.83
2019-02-23T13:15:45.259Z,12.77
2019-02-23T13:18:45.752Z,12.13
2019-02-23T13:21:32.542Z,12.33
2019-02-23T13:24:27.741Z,12.07
2019-02-23T13:27:01.170Z,12.03
2019-02-23T13:29:38.358Z,11.37
2019-02-23T13:32:21.721Z,11.73
2019-02-23T13:35:29.518Z,12.30
2019-02-23T13:38:13.118Z,11.67
2019-02-23T13:41:04.157Z,12.00
2019-02-23T13:43:41.131Z,11.93
2019-02-23T13:46:15.590Z,12.53
2019-02-23T13:48:47.073Z,11.70
2019-02-23T13:51:33.481Z,13.23
2019-02-23T13:54:17.001Z,13.33
2019-02-23T13:56:54.511Z,16.73
2019-02-23T13:59:42.957Z,14.30
2019-02-23T14:02:26.557Z,11.70
2019-02-23T14:05:07.034Z,14.80
2019-02-23T14:07:56.485Z,11.33
2019-02-23T14:10:44.229Z,11.67
2019-02-23T14:13:15.704Z,12.73
2019-02-23T14:16:05.555Z,12.37
2019-02-23T14:18:45.020Z,20.73
2019-02-23T14:21:19.301Z,31.47
2019-02-23T14:24:13.377Z,15.53
2019-02-23T14:26:47.741Z,11.93
2019-02-23T14:29:22.033Z,12.17
2019-02-23T14:32:05.148Z,11.70
2019-02-23T14:34:41.804Z,12.33
2019-02-23T14:37:15.815Z,12.77
2019-02-23T14:40:08.784Z,12.50
2019-02-23T14:42:46.123Z,13.00
2019-02-23T14:45:26.312Z,14.53
2019-02-23T14:48:18.993Z,12.77
2019-02-23T14:51:06.866Z,12.57
2019-02-23T14:53:44.329Z,11.83
2019-02-23T14:56:27.928Z,12.37
2019-02-23T14:59:07.881Z,12.23
2019-02-23T15:01:45.729Z,12.80
2019-02-23T15:04:29.149Z,11.20
2019-02-23T15:07:17.149Z,10.70
2019-02-23T15:09:51.160Z,10.33
2019-02-23T15:12:34.661Z,10.33
2019-02-23T15:15:06.141Z,9.83
2019-02-23T15:17:43.343Z,10.53
2019-02-23T15:20:31.529Z,10.33
2019-02-23T15:23:08.838Z,10.43
2019-02-23T15:25:46.140Z,10.00
2019-02-23T15:28:38.310Z,9.53
2019-02-23T15:31:15.249Z,9.57
2019-02-23T15:34:05.010Z,9.70
2019-02-23T15:36:39.454Z,9.50
2019-02-23T15:39:28.430Z,8.90
2019-02-23T15:42:23.943Z,9.10
2019-02-23T15:45:17.975Z,9.57
2019-02-23T15:48:01.627Z,9.37
2019-02-23T15:50:30.022Z,9.13
2019-02-23T15:52:58.423Z,9.20
2019-02-23T15:55:29.859Z,9.40
2019-02-23T15:57:57.040Z,9.67
2019-02-23T16:00:25.451Z,9.07
2019-02-23T16:02:53.846Z,9.73
2019-02-23T16:05:22.241Z,8.87
2019-02-23T16:07:50.659Z,9.40
2019-02-23T16:10:19.050Z,8.53
2019-02-23T16:12:47.452Z,9.90
2019-02-23T16:15:16.426Z,9.27
2019-02-23T16:17:44.907Z,10.13
2019-02-23T16:20:13.346Z,11.10
2019-02-23T16:22:41.745Z,11.37
2019-02-23T16:25:10.138Z,11.80
2019-02-23T16:27:38.556Z,10.53
2019-02-23T16:30:10.263Z,12.13
2019-02-23T16:32:39.360Z,10.70
2019-02-23T16:35:09.092Z,10.57
2019-02-23T16:37:37.492Z,9.80
2019-02-23T16:40:08.419Z,10.97
2019-02-23T16:42:36.837Z,10.00
2019-02-23T16:45:07.861Z,9.77
2019-02-23T16:47:36.313Z,9.57
2019-02-23T16:50:07.321Z,9.87
2019-02-23T16:52:35.725Z,10.93
2019-02-23T16:55:04.270Z,10.23
2019-02-23T16:57:32.799Z,10.60
2019-02-23T17:00:01.201Z,10.63
2019-02-23T17:02:29.609Z,10.03
2019-02-23T17:04:58.045Z,10.37
2019-02-23T17:07:26.455Z,9.67
2019-02-23T17:09:54.846Z,10.73
2019-02-23T17:12:23.249Z,10.73
2019-02-23T17:14:51.648Z,10.70
2019-02-23T17:17:20.049Z,10.80
2019-02-23T17:19:48.453Z,10.70
2019-02-23T17:22:16.886Z,10.27
2019-02-23T17:24:45.269Z,10.00
2019-02-23T17:27:13.671Z,11.17
2019-02-23T17:29:42.148Z,10.57
2019-02-23T17:32:10.548Z,10.17
2019-02-23T17:34:38.945Z,10.27
2019-02-23T17:37:07.518Z,10.53
2019-02-23T17:39:35.913Z,10.33
2019-02-23T17:42:04.370Z,11.47
2019-02-23T17:44:32.854Z,11.20
2019-02-23T17:47:01.261Z,10.33
2019-02-23T17:49:29.653Z,10.50
2019-02-23T17:51:58.066Z,10.33
2019-02-23T17:54:26.490Z,10.37
2019-02-23T17:56:54.885Z,10.03
2019-02-23T17:59:23.281Z,10.67
2019-02-23T18:01:51.700Z,11.10
2019-02-23T18:04:20.105Z,10.50
2019-02-23T18:06:48.504Z,10.83
2019-02-23T18:09:16.909Z,10.53
2019-02-23T18:11:45.317Z,11.50
2019-02-23T18:14:13.720Z,11.07
2019-02-23T18:16:42.118Z,11.40
2019-02-23T18:19:10.537Z,11.17
2019-02-23T18:21:38.933Z,11.20
2019-02-23T18:24:07.318Z,11.47
2019-02-23T18:26:35.717Z,11.40
2019-02-23T18:29:04.272Z,11.93
2019-02-23T18:31:38.231Z,11.30
2019-02-23T18:34:06.620Z,12.03
2019-02-23T18:36:35.017Z,11.47
2019-02-23T18:39:04.573Z,12.17
2019-02-23T18:41:32.974Z,10.93
2019-02-23T18:44:01.365Z,13.65
2019-02-23T18:46:49.150Z,11.40
2019-02-23T18:49:17.565Z,12.00
2019-02-23T18:51:45.962Z,11.33
2019-02-23T18:54:14.371Z,12.30
2019-02-23T18:56:42.777Z,11.87
2019-02-23T18:59:11.193Z,12.47
2019-02-23T19:01:39.598Z,11.97
2019-02-23T19:04:07.989Z,12.10
2019-02-23T19:06:36.407Z,12.27
2019-02-23T19:09:06.163Z,13.30
2019-02-23T19:11:34.557Z,12.73
2019-02-23T19:14:02.962Z,11.33
2019-02-23T19:16:31.360Z,11.13
2019-02-23T19:18:59.775Z,11.37
2019-02-23T19:21:28.149Z,11.27
2019-02-23T19:23:56.548Z,11.00
2019-02-23T19:26:24.971Z,11.57
2019-02-23T19:28:53.365Z,12.07
2019-02-23T19:31:21.756Z,11.47
2019-02-23T19:33:50.151Z,13.07
2019-02-23T19:36:18.571Z,12.00
2019-02-23T19:38:47.342Z,12.90
2019-02-23T19:41:15.758Z,13.17
2019-02-23T19:43:44.205Z,13.77
2019-02-23T19:46:12.580Z,13.57
2019-02-23T19:48:40.978Z,13.73
2019-02-23T19:51:10.242Z,15.00
2019-02-23T19:53:40.305Z,12.17
2019-02-23T19:56:08.778Z,13.17
2019-02-23T19:58:37.881Z,13.27
2019-02-23T20:01:06.889Z,12.63
2019-02-23T20:03:35.291Z,11.87
2019-02-23T20:06:03.677Z,12.23
2019-02-23T20:08:32.078Z,12.67
2019-02-23T20:11:00.475Z,11.70
2019-02-23T20:13:28.890Z,11.97
2019-02-23T20:15:57.301Z,12.13
2019-02-23T20:18:25.702Z,11.07
2019-02-23T20:20:54.094Z,10.77
2019-02-23T20:23:22.509Z,12.10
2019-02-23T20:25:50.917Z,11.73
2019-02-23T20:28:19.340Z,10.77
2019-02-23T20:30:47.735Z,10.10
2019-02-23T20:33:16.129Z,28.47
2019-02-23T20:35:44.544Z,14.57
2019-02-23T20:38:12.933Z,11.40
2019-02-23T20:40:41.341Z,10.40
2019-02-23T20:43:09.743Z,10.40
2019-02-23T20:45:38.147Z,10.87
2019-02-23T20:48:06.632Z,10.60
2019-02-23T20:50:35.045Z,10.07
2019-02-23T20:53:03.445Z,10.83
2019-02-23T20:55:31.845Z,11.50
2019-02-23T20:58:00.245Z,12.07
2019-02-23T21:00:28.657Z,14.23
2019-02-23T21:02:57.052Z,13.07
2019-02-23T21:05:25.526Z,11.77
2019-02-23T21:07:54.002Z,12.73
2019-02-23T21:10:22.476Z,12.23
2019-02-23T21:12:50.965Z,11.30
2019-02-23T21:15:19.372Z,12.40
2019-02-23T21:17:47.776Z,12.03
2019-02-23T21:20:16.185Z,10.83
2019-02-23T21:22:44.577Z,12.73
2019-02-23T21:25:13.266Z,11.27
2019-02-23T21:27:41.814Z,12.33
2019-02-23T21:30:11.669Z,11.80
2019-02-23T21:32:40.069Z,10.93
2019-02-23T21:35:09.437Z,11.83
2019-02-23T21:37:37.821Z,11.37
2019-02-23T21:40:09.145Z,12.10
2019-02-23T21:42:37.631Z,11.40
2019-02-23T21:45:08.862Z,11.13
2019-02-23T21:47:37.373Z,12.03
2019-02-23T21:50:08.994Z,11.80
2019-02-23T21:52:37.392Z,12.87
2019-02-23T21:55:06.629Z,12.10
2019-02-23T21:57:35.022Z,12.20
2019-02-23T22:00:05.085Z,13.97
2019-02-23T22:02:33.482Z,14.97
2019-02-23T22:05:01.885Z,13.17
2019-02-23T22:07:30.456Z,12.63
2019-02-23T22:09:58.985Z,11.40
2019-02-23T22:12:27.455Z,12.00
2019-02-23T22:14:55.857Z,11.73
2019-02-23T22:17:24.247Z,12.10
2019-02-23T22:19:53.899Z,12.10
2019-02-23T22:22:22.316Z,11.17
2019-02-23T22:24:50.727Z,11.93
2019-02-23T22:27:19.198Z,12.00
2019-02-23T22:29:47.588Z,12.17
2019-02-23T22:32:16.007Z,12.53
2019-02-23T22:34:44.402Z,12.80
2019-02-23T22:37:12.796Z,11.57
2019-02-23T22:39:41.193Z,11.60
2019-02-23T22:42:09.588Z,11.73
2019-02-23T22:44:37.995Z,11.37
2019-02-23T22:47:06.395Z,10.97
2019-02-23T22:49:34.796Z,11.73
2019-02-23T22:52:03.197Z,11.40
2019-02-23T22:54:31.585Z,11.83
2019-02-23T22:56:59.985Z,11.47
2019-02-23T22:59:28.380Z,11.80
2019-02-23T23:01:56.860Z,12.13
2019-02-23T23:04:25.263Z,11.90
2019-02-23T23:06:53.649Z,12.47
2019-02-23T23:09:22.053Z,11.07
2019-02-23T23:11:50.436Z,11.87
2019-02-23T23:14:18.824Z,12.07
2019-02-23T23:16:47.223Z,10.97
2019-02-23T23:19:15.632Z,12.17
2019-02-23T23:21:44.014Z,11.50
2019-02-23T23:24:12.453Z,11.27
2019-02-23T23:26:40.885Z,11.67
2019-02-23T23:29:09.273Z,12.00
2019-02-23T23:31:37.668Z,12.47
2019-02-23T23:34:06.057Z,13.80
2019-02-23T23:36:34.461Z,13.63
2019-02-23T23:39:02.854Z,11.87
2019-02-23T23:41:31.249Z,12.20
2019-02-23T23:43:59.652Z,11.80
2019-02-23T23:46:28.044Z,11.47
2019-02-23T23:48:56.448Z,12.23
2019-02-23T23:51:24.845Z,11.97
2019-02-23T23:53:53.241Z,11.93
2019-02-23T23:56:21.648Z,12.20
2019-02-23T23:58:50.058Z,11.43
